LFBL/LIG METAR and TAF weather

Enter ICAO airport designator
Station Type Date Time Source
LFBL METAR 2019/08/25 20:30 UTC NOAA

LFBL 252030Z AUTO 34006KT CAVOK 25/13 Q1019 NOSIG


Station Type Date Time Source
LFBL Decoded METAR 2019/08/25 20:30 UTC NOAA

Station name not available
Aug 25, 2019 - 04:30 PM EDT / 2019.08.25 2030 UTC
Wind: from the NNW (340 degrees) at 7 MPH (6 KT):0
Visibility: greater than 7 mile(s):0
Temperature: 77 F (25 C)
Dew Point: 55 F (13 C)
Relative Humidity: 47%
Pressure (altimeter): 30.09 in. Hg (1019 hPa)
ob: LFBL 252030Z AUTO 34006KT CAVOK 25/13 Q1019 NOSIG
cycle: 20

Station Type Date Time Source
LFBL TAF 2019/08/25 18:46 UTC NOAA

TAF LFBL 251700Z 2518/2618 30005KT CAVOK
BECMG 2521/2524 09005KT
BECMG 2609/2612 14006KT

Example: see airport list